Time;durP1;ratioP1;P1;durP2;ratioP2;P2;SDS_P1;SDS_P2;PMS_P1;PMS_P2;Temp;Humidity;BMP_temperature;BMP_pressure;BME280_temperature;BME280_humidity;BME280_pressure;Samples;Min_cycle;Max_cycle;Signal;HPM_P1;HPM_P2
2023/08/04 00:01:40;;;;;;;6.03;3.53;;;;;;;;;;6083099;29;20308;-80
2023/08/04 00:04:46;;;;;;;6.30;3.30;;;;;;;;;;6081678;29;20309;-80
2023/08/04 00:07:50;;;;;;;5.13;3.80;;;;;;;;;;6097812;29;20308;-80
2023/08/04 00:10:54;;;;;;;7.28;3.50;;;;;;;;;;6089965;29;20289;-80
2023/08/04 00:13:58;;;;;;;10.13;4.53;;;;;;;;;;6077345;29;20302;-82
2023/08/04 00:17:02;;;;;;;10.38;4.65;;;;;;;;;;6078025;29;20538;-81
2023/08/04 00:20:10;;;;;;;7.57;3.78;;;;;;;;;;6077171;29;20304;-79
2023/08/04 00:23:14;;;;;;;5.03;4.10;;;;;;;;;;6070095;29;20293;-80
2023/08/04 00:26:18;;;;;;;9.07;4.40;;;;;;;;;;6077928;29;20306;-81
2023/08/04 00:29:26;;;;;;;9.02;4.30;;;;;;;;;;6076774;29;20301;-80
2023/08/04 00:32:30;;;;;;;7.75;4.22;;;;;;;;;;6077010;29;20297;-80
2023/08/04 00:35:35;;;;;;;10.18;4.63;;;;;;;;;;6074414;29;20325;-81
2023/08/04 00:38:39;;;;;;;5.82;3.78;;;;;;;;;;6074334;29;20301;-81
2023/08/04 00:41:43;;;;;;;6.80;4.75;;;;;;;;;;6059747;29;20312;-81
2023/08/04 00:44:48;;;;;;;9.10;4.78;;;;;;;;;;6076511;29;20316;-81
2023/08/04 00:47:52;;;;;;;13.77;4.85;;;;;;;;;;6075307;29;20312;-80
2023/08/04 00:50:58;;;;;;;6.13;3.85;;;;;;;;;;6058664;29;20479;-81
2023/08/04 00:54:02;;;;;;;5.40;3.90;;;;;;;;;;6060700;29;20293;-81
2023/08/04 00:57:06;;;;;;;9.30;3.78;;;;;;;;;;6074255;29;20301;-79
2023/08/04 01:00:11;;;;;;;8.13;3.83;;;;;;;;;;6073995;29;20477;-80
2023/08/04 01:03:15;;;;;;;6.82;3.60;;;;;;;;;;6073952;23;20301;-73
2023/08/04 01:06:38;;;;;;;9.70;3.78;;;;;;;;;;6031865;29;20286;-73
2023/08/04 01:09:46;;;;;;;4.38;3.13;;;;;;;;;;6077035;29;20310;-72
2023/08/04 01:12:58;;;;;;;6.93;3.95;;;;;;;;;;6026903;29;20330;-73
2023/08/04 01:16:04;;;;;;;4.70;3.38;;;;;;;;;;6024741;29;20473;-71
2023/08/04 01:19:08;;;;;;;4.13;3.50;;;;;;;;;;6027691;29;20297;-71
2023/08/04 01:22:13;;;;;;;5.63;3.80;;;;;;;;;;6061886;29;20293;-71
2023/08/04 01:25:18;;;;;;;5.32;2.97;;;;;;;;;;6045843;29;20554;-71
2023/08/04 01:28:22;;;;;;;8.30;3.05;;;;;;;;;;6047515;29;20302;-72
2023/08/04 01:31:27;;;;;;;6.50;3.53;;;;;;;;;;6047785;29;20357;-72
2023/08/04 01:34:31;;;;;;;7.97;3.53;;;;;;;;;;6047382;29;20502;-71
2023/08/04 01:37:36;;;;;;;4.10;3.08;;;;;;;;;;6032643;29;20591;-72
2023/08/04 01:40:40;;;;;;;4.93;3.30;;;;;;;;;;6022779;29;20578;-72
2023/08/04 01:43:44;;;;;;;4.88;3.00;;;;;;;;;;6024069;29;20298;-71
2023/08/04 01:46:48;;;;;;;3.20;3.00;;;;;;;;;;6023718;29;20350;-72
2023/08/04 01:49:51;;;;;;;5.43;3.60;;;;;;;;;;6038045;29;20322;-73
2023/08/04 01:52:57;;;;;;;3.55;3.25;;;;;;;;;;6023935;29;20599;-72
2023/08/04 01:56:00;;;;;;;2.92;2.72;;;;;;;;;;6022944;29;20490;-72
2023/08/04 01:59:04;;;;;;;6.97;3.60;;;;;;;;;;6022609;29;20295;-73
2023/08/04 02:02:09;;;;;;;6.20;3.33;;;;;;;;;;6058358;29;20325;-72
2023/08/04 02:05:13;;;;;;;3.22;2.90;;;;;;;;;;6045506;29;20298;-72
2023/08/04 02:08:18;;;;;;;8.43;3.47;;;;;;;;;;6045486;29;20298;-72
2023/08/04 02:11:22;;;;;;;4.15;3.17;;;;;;;;;;6059233;29;20301;-73
2023/08/04 02:14:27;;;;;;;3.42;2.85;;;;;;;;;;6069250;29;20305;-71
2023/08/04 02:17:31;;;;;;;4.45;3.33;;;;;;;;;;6083414;29;20308;-71
2023/08/04 02:20:35;;;;;;;3.50;3.13;;;;;;;;;;6069097;29;20300;-72
2023/08/04 02:23:41;;;;;;;6.68;3.05;;;;;;;;;;6069029;29;20605;-71
2023/08/04 02:26:45;;;;;;;2.90;2.70;;;;;;;;;;6069329;29;20300;-71
2023/08/04 02:29:49;;;;;;;3.45;2.85;;;;;;;;;;6067904;29;20308;-72
2023/08/04 02:32:52;;;;;;;3.65;3.35;;;;;;;;;;6067653;29;20305;-72
2023/08/04 02:36:00;;;;;;;3.58;3.20;;;;;;;;;;6068634;29;20309;-72
2023/08/04 02:39:05;;;;;;;3.28;2.88;;;;;;;;;;6069136;29;20300;-72
2023/08/04 02:42:09;;;;;;;2.70;2.38;;;;;;;;;;6069385;29;20310;-72
2023/08/04 02:45:13;;;;;;;6.20;3.20;;;;;;;;;;6068993;29;20305;-72
2023/08/04 02:48:18;;;;;;;3.50;2.78;;;;;;;;;;6068957;29;20305;-72
2023/08/04 02:51:22;;;;;;;2.90;2.78;;;;;;;;;;6083271;29;20510;-72
2023/08/04 02:54:27;;;;;;;3.03;2.90;;;;;;;;;;6067432;29;20472;-72
2023/08/04 02:57:34;;;;;;;2.60;2.55;;;;;;;;;;6066856;29;20300;-72
2023/08/04 03:00:37;;;;;;;2.97;2.83;;;;;;;;;;6068334;29;20443;-72
2023/08/04 03:03:41;;;;;;;4.18;3.00;;;;;;;;;;6066719;29;20588;-72
2023/08/04 03:06:45;;;;;;;2.97;2.88;;;;;;;;;;6060119;29;20412;-71
2023/08/04 03:09:50;;;;;;;4.68;2.95;;;;;;;;;;6046573;29;20329;-72
2023/08/04 03:12:54;;;;;;;3.38;3.08;;;;;;;;;;6068547;29;20312;-73
2023/08/04 03:15:59;;;;;;;3.03;2.80;;;;;;;;;;6071487;29;20300;-72
2023/08/04 03:19:02;;;;;;;3.40;3.20;;;;;;;;;;6068624;29;20465;-72
2023/08/04 03:22:06;;;;;;;2.90;2.80;;;;;;;;;;6068701;29;20410;-72
2023/08/04 03:25:12;;;;;;;3.05;2.85;;;;;;;;;;6068526;29;20301;-72
2023/08/04 03:28:15;;;;;;;2.85;2.85;;;;;;;;;;6068061;29;20296;-72
2023/08/04 03:31:19;;;;;;;5.78;3.35;;;;;;;;;;6068728;29;20293;-72
2023/08/04 03:34:23;;;;;;;3.10;2.90;;;;;;;;;;6068197;29;20617;-73
2023/08/04 03:37:27;;;;;;;3.50;3.10;;;;;;;;;;6068409;29;20498;-72
2023/08/04 03:40:32;;;;;;;2.78;2.67;;;;;;;;;;6068057;29;20467;-72
2023/08/04 03:43:36;;;;;;;3.28;2.88;;;;;;;;;;6068143;29;20296;-72
2023/08/04 03:46:40;;;;;;;2.80;2.70;;;;;;;;;;6069558;29;20309;-72
2023/08/04 03:49:44;;;;;;;2.85;2.65;;;;;;;;;;6072294;29;20297;-72
2023/08/04 03:52:47;;;;;;;2.60;2.40;;;;;;;;;;6072310;29;20297;-72
2023/08/04 03:55:53;;;;;;;4.10;2.75;;;;;;;;;;6072765;29;20309;-72
2023/08/04 03:58:56;;;;;;;3.17;2.88;;;;;;;;;;6072148;29;20478;-72
2023/08/04 04:02:00;;;;;;;3.05;2.85;;;;;;;;;;6072552;29;20309;-72
2023/08/04 04:05:04;;;;;;;7.90;2.95;;;;;;;;;;6072115;29;20388;-72
2023/08/04 04:08:08;;;;;;;2.83;2.72;;;;;;;;;;6070976;29;20301;-72
2023/08/04 04:11:14;;;;;;;2.72;2.63;;;;;;;;;;6072300;29;20296;-71
2023/08/04 04:14:17;;;;;;;4.05;3.17;;;;;;;;;;6071648;29;20309;-71
2023/08/04 04:17:21;;;;;;;4.32;3.00;;;;;;;;;;6072399;29;20384;-71
2023/08/04 04:20:25;;;;;;;3.25;2.95;;;;;;;;;;6071740;29;20376;-72
2023/08/04 04:23:29;;;;;;;2.85;2.75;;;;;;;;;;6071707;29;20297;-71
2023/08/04 04:26:34;;;;;;;2.80;2.60;;;;;;;;;;6072210;29;20305;-72
2023/08/04 04:29:38;;;;;;;2.65;2.45;;;;;;;;;;6071783;29;20361;-72
2023/08/04 04:32:42;;;;;;;3.40;3.10;;;;;;;;;;6071220;29;20580;-71
2023/08/04 04:35:49;;;;;;;2.63;2.42;;;;;;;;;;6071959;29;20321;-71
2023/08/04 04:38:52;;;;;;;3.45;3.15;;;;;;;;;;6071154;29;20324;-71
2023/08/04 04:41:58;;;;;;;2.78;2.58;;;;;;;;;;6071400;29;20308;-72
2023/08/04 04:45:02;;;;;;;3.13;2.72;;;;;;;;;;6071117;29;20489;-71
2023/08/04 04:48:05;;;;;;;2.92;2.72;;;;;;;;;;6070888;29;20296;-72
2023/08/04 04:51:09;;;;;;;2.70;2.60;;;;;;;;;;6071556;29;20305;-71
2023/08/04 04:54:13;;;;;;;2.90;2.80;;;;;;;;;;6070734;29;20297;-71
2023/08/04 04:57:18;;;;;;;2.75;2.65;;;;;;;;;;6070998;29;20292;-72
2023/08/04 05:00:22;;;;;;;2.60;2.50;;;;;;;;;;6070865;29;20300;-71
2023/08/04 05:03:26;;;;;;;2.83;2.63;;;;;;;;;;6069375;29;20300;-74
2023/08/04 05:06:29;;;;;;;2.95;2.70;;;;;;;;;;6070678;29;20257;-72
2023/08/04 05:09:33;;;;;;;2.58;2.33;;;;;;;;;;6070793;29;20297;-72
2023/08/04 05:12:38;;;;;;;2.33;2.33;;;;;;;;;;6070164;29;20253;-72
2023/08/04 05:15:42;;;;;;;4.70;3.03;;;;;;;;;;6071153;29;20246;-72
2023/08/04 05:18:46;;;;;;;3.20;2.83;;;;;;;;;;6070211;29;20317;-72
2023/08/04 05:21:51;;;;;;;2.60;2.50;;;;;;;;;;6070541;29;20293;-72
2023/08/04 05:24:54;;;;;;;2.90;2.80;;;;;;;;;;6070357;29;20301;-72
2023/08/04 05:28:23;;;;;;;2.80;2.60;;;;;;;;;;6069806;29;20301;-72
2023/08/04 05:31:26;;;;;;;2.65;2.55;;;;;;;;;;6070568;29;20593;-73
2023/08/04 05:34:30;;;;;;;2.75;2.50;;;;;;;;;;6068828;29;20577;-72
2023/08/04 05:37:34;;;;;;;2.72;2.60;;;;;;;;;;6069565;29;20304;-73
2023/08/04 05:40:38;;;;;;;3.08;2.97;;;;;;;;;;6070432;29;20296;-72
2023/08/04 05:43:43;;;;;;;2.92;2.47;;;;;;;;;;6070102;29;20300;-72
2023/08/04 05:46:47;;;;;;;2.70;2.60;;;;;;;;;;6070393;29;20293;-72
2023/08/04 05:49:51;;;;;;;2.53;2.42;;;;;;;;;;6069523;29;20304;-72
2023/08/04 05:52:55;;;;;;;2.20;2.20;;;;;;;;;;6069476;29;20380;-72
2023/08/04 05:55:59;;;;;;;2.53;2.42;;;;;;;;;;6070109;29;20305;-72
2023/08/04 05:59:04;;;;;;;5.25;2.63;;;;;;;;;;6069351;29;20305;-72
2023/08/04 06:02:08;;;;;;;2.60;2.50;;;;;;;;;;6069714;29;20314;-72
2023/08/04 06:05:12;;;;;;;3.60;2.40;;;;;;;;;;6069368;29;20305;-72
2023/08/04 06:08:15;;;;;;;2.17;2.17;;;;;;;;;;6069226;29;20577;-72
2023/08/04 06:11:21;;;;;;;2.95;2.83;;;;;;;;;;6068954;29;20293;-72
2023/08/04 06:14:26;;;;;;;2.78;2.30;;;;;;;;;;6069302;29;20304;-72
2023/08/04 06:17:30;;;;;;;2.15;2.05;;;;;;;;;;6069577;29;20301;-72
2023/08/04 06:20:34;;;;;;;2.58;2.55;;;;;;;;;;6069041;29;20392;-72
2023/08/04 06:23:41;;;;;;;2.50;2.40;;;;;;;;;;6068958;29;20298;-72
2023/08/04 06:26:45;;;;;;;2.60;2.40;;;;;;;;;;6069306;29;20309;-72
2023/08/04 06:29:50;;;;;;;3.13;2.35;;;;;;;;;;6069049;29;20314;-72
2023/08/04 06:32:54;;;;;;;4.50;2.55;;;;;;;;;;6069071;29;20309;-72
2023/08/04 06:35:57;;;;;;;2.33;2.22;;;;;;;;;;6069492;29;20304;-72
2023/08/04 06:39:01;;;;;;;4.32;2.40;;;;;;;;;;6069023;29;20486;-72
2023/08/04 06:42:05;;;;;;;2.70;2.50;;;;;;;;;;6069381;29;20460;-72
2023/08/04 06:45:11;;;;;;;2.67;2.47;;;;;;;;;;6068996;29;20305;-72
2023/08/04 06:48:15;;;;;;;2.58;2.10;;;;;;;;;;6068925;29;20293;-72
2023/08/04 06:51:19;;;;;;;1.75;1.75;;;;;;;;;;6069217;29;20301;-72
2023/08/04 06:54:23;;;;;;;4.25;2.55;;;;;;;;;;6068575;29;20298;-72
2023/08/04 06:57:27;;;;;;;2.60;2.42;;;;;;;;;;6066959;29;20309;-72
2023/08/04 07:00:32;;;;;;;1.95;1.95;;;;;;;;;;6068378;29;20312;-72
2023/08/04 07:03:36;;;;;;;1.85;1.85;;;;;;;;;;6068167;29;20316;-72
2023/08/04 07:06:40;;;;;;;2.45;2.35;;;;;;;;;;6068866;29;20237;-72
2023/08/04 07:09:43;;;;;;;2.40;2.40;;;;;;;;;;6064809;29;20477;-72
2023/08/04 07:12:47;;;;;;;2.20;2.13;;;;;;;;;;6044999;29;20294;-72
2023/08/04 07:15:56;;;;;;;2.53;2.42;;;;;;;;;;6045735;29;20534;-71
2023/08/04 07:19:00;;;;;;;4.07;2.53;;;;;;;;;;6045305;29;20306;-72
2023/08/04 07:22:05;;;;;;;5.20;2.33;;;;;;;;;;6048336;29;20293;-72
2023/08/04 07:25:09;;;;;;;2.50;2.40;;;;;;;;;;6049761;29;20290;-72
2023/08/04 07:28:13;;;;;;;3.63;3.33;;;;;;;;;;6049599;29;20301;-72
2023/08/04 07:31:18;;;;;;;3.58;3.25;;;;;;;;;;6049959;29;20319;-72
2023/08/04 07:34:21;;;;;;;5.05;2.83;;;;;;;;;;6049327;29;20480;-72
2023/08/04 07:37:25;;;;;;;3.60;3.35;;;;;;;;;;6049727;29;20583;-72
2023/08/04 07:40:29;;;;;;;4.53;3.60;;;;;;;;;;6049268;29;20301;-73
2023/08/04 07:43:33;;;;;;;3.92;3.72;;;;;;;;;;6063632;29;20326;-72
2023/08/04 07:46:38;;;;;;;5.78;4.20;;;;;;;;;;6049729;29;20306;-72
2023/08/04 07:49:42;;;;;;;5.60;4.43;;;;;;;;;;6049347;29;20301;-72
2023/08/04 07:52:45;;;;;;;6.07;4.47;;;;;;;;;;6049093;29;20301;-72
2023/08/04 07:55:56;;;;;;;4.00;3.90;;;;;;;;;;6049599;29;20357;-72
2023/08/04 07:59:00;;;;;;;4.60;4.40;;;;;;;;;;6048517;29;20334;-73
2023/08/04 08:02:05;;;;;;;4.13;3.83;;;;;;;;;;6048898;29;20305;-72
2023/08/04 08:05:10;;;;;;;3.78;3.50;;;;;;;;;;6048728;29;20314;-72
2023/08/04 08:08:14;;;;;;;3.67;3.47;;;;;;;;;;6062848;29;20309;-72
2023/08/04 08:11:17;;;;;;;4.20;3.97;;;;;;;;;;6063044;29;20305;-72
2023/08/04 08:14:21;;;;;;;3.80;3.50;;;;;;;;;;6071217;29;20297;-72
2023/08/04 08:17:26;;;;;;;2.88;2.88;;;;;;;;;;6071633;29;20349;-72
2023/08/04 08:20:30;;;;;;;3.60;3.33;;;;;;;;;;6070973;29;20301;-72
2023/08/04 08:23:34;;;;;;;2.65;2.60;;;;;;;;;;6071109;29;20589;-73
2023/08/04 08:26:38;;;;;;;2.97;2.80;;;;;;;;;;6071670;29;20300;-73
2023/08/04 08:29:43;;;;;;;3.50;3.35;;;;;;;;;;6070784;29;20412;-73
2023/08/04 08:32:48;;;;;;;3.60;3.38;;;;;;;;;;6068817;29;20480;-73
2023/08/04 08:35:52;;;;;;;3.30;3.20;;;;;;;;;;6070117;29;20671;-73
2023/08/04 08:38:56;;;;;;;2.95;2.90;;;;;;;;;;6070634;29;20345;-73
2023/08/04 08:41:59;;;;;;;2.72;2.58;;;;;;;;;;6071217;29;20325;-73
2023/08/04 08:45:04;;;;;;;2.90;2.80;;;;;;;;;;6070716;29;20301;-72
2023/08/04 08:48:09;;;;;;;2.50;2.50;;;;;;;;;;6071016;29;20297;-73
2023/08/04 08:51:17;;;;;;;2.55;2.50;;;;;;;;;;6071335;29;20297;-73
2023/08/04 08:54:22;;;;;;;2.67;2.47;;;;;;;;;;6070669;29;20305;-73
2023/08/04 08:57:27;;;;;;;2.50;2.50;;;;;;;;;;6071204;29;20482;-73
2023/08/04 09:00:31;;;;;;;3.85;3.38;;;;;;;;;;6069027;29;20293;-73
2023/08/04 09:03:36;;;;;;;5.30;3.13;;;;;;;;;;6061308;29;20473;-73
2023/08/04 09:06:40;;;;;;;4.22;2.80;;;;;;;;;;6047764;29;20246;-75
2023/08/04 09:09:44;;;;;;;3.15;3.10;;;;;;;;;;6047160;29;20310;-73
2023/08/04 09:12:49;;;;;;;4.13;3.17;;;;;;;;;;6046625;29;20425;-73
2023/08/04 09:15:56;;;;;;;3.25;3.15;;;;;;;;;;6047032;29;20302;-73
2023/08/04 09:19:04;;;;;;;2.95;2.72;;;;;;;;;;6046951;29;20306;-73
2023/08/04 09:22:08;;;;;;;2.50;2.40;;;;;;;;;;6046023;29;20570;-73
2023/08/04 09:25:12;;;;;;;2.65;2.47;;;;;;;;;;6046967;29;20293;-73
2023/08/04 09:28:16;;;;;;;2.40;2.38;;;;;;;;;;6046726;29;20310;-73
2023/08/04 09:31:20;;;;;;;3.00;2.90;;;;;;;;;;6046992;29;20590;-73
2023/08/04 09:34:25;;;;;;;3.40;3.30;;;;;;;;;;6046852;29;20309;-73
2023/08/04 09:37:31;;;;;;;2.75;2.60;;;;;;;;;;6046839;29;20289;-73
2023/08/04 09:40:35;;;;;;;2.10;2.10;;;;;;;;;;6046353;29;20305;-73
2023/08/04 09:43:43;;;;;;;2.53;2.45;;;;;;;;;;6046582;29;20582;-71
2023/08/04 09:46:51;;;;;;;2.47;2.40;;;;;;;;;;6047077;29;20302;-73
2023/08/04 09:49:58;;;;;;;1.95;1.95;;;;;;;;;;6046398;29;20318;-71
2023/08/04 09:53:03;;;;;;;3.28;1.90;;;;;;;;;;6045715;29;20290;-72
2023/08/04 09:56:08;;;;;;;2.30;2.20;;;;;;;;;;6046808;29;20302;-72
2023/08/04 09:59:12;;;;;;;2.83;2.50;;;;;;;;;;6044848;29;20486;-75
2023/08/04 10:02:18;;;;;;;2.10;2.10;;;;;;;;;;6052103;29;20313;-76
2023/08/04 10:05:23;;;;;;;2.78;2.67;;;;;;;;;;6069293;29;20292;-76
2023/08/04 10:08:29;;;;;;;2.35;1.98;;;;;;;;;;6068983;29;20567;-74
2023/08/04 10:11:33;;;;;;;2.85;2.28;;;;;;;;;;6069286;29;20466;-74
2023/08/04 10:14:37;;;;;;;1.95;1.95;;;;;;;;;;6068993;29;20308;-72
2023/08/04 10:17:42;;;;;;;2.53;1.80;;;;;;;;;;6068716;29;20305;-73
2023/08/04 10:20:47;;;;;;;1.90;1.80;;;;;;;;;;6069526;29;20305;-72
2023/08/04 10:23:53;;;;;;;1.45;1.45;;;;;;;;;;6068989;29;20313;-74
2023/08/04 10:26:57;;;;;;;1.67;1.65;;;;;;;;;;6068397;29;20300;-75
2023/08/04 10:30:03;;;;;;;2.10;2.03;;;;;;;;;;6068785;29;20297;-75
2023/08/04 10:33:10;;;;;;;2.45;1.90;;;;;;;;;;6068744;29;20305;-75
2023/08/04 10:36:18;;;;;;;2.30;2.10;;;;;;;;;;6069344;29;20296;-73
2023/08/04 10:39:29;;;;;;;2.17;2.07;;;;;;;;;;6067492;29;20484;-73
2023/08/04 10:42:58;;;;;;;1.90;1.90;;;;;;;;;;6067534;29;20543;-73
2023/08/04 10:46:10;;;;;;;1.80;1.80;;;;;;;;;;6069085;29;20482;-72
2023/08/04 10:49:14;;;;;;;1.33;1.23;;;;;;;;;;6067294;29;20476;-75
2023/08/04 10:52:20;;;;;;;3.30;1.30;;;;;;;;;;6068910;29;20308;-71
2023/08/04 10:55:25;;;;;;;1.50;1.50;;;;;;;;;;6069990;29;20555;-72
2023/08/04 10:58:30;;;;;;;1.20;1.20;;;;;;;;;;6075957;29;20309;-71
2023/08/04 11:01:34;;;;;;;1.15;1.15;;;;;;;;;;6075786;29;20309;-72
2023/08/04 11:04:38;;;;;;;1.50;1.40;;;;;;;;;;6074804;29;20313;-72
2023/08/04 11:07:47;;;;;;;1.10;1.10;;;;;;;;;;6075442;29;20296;-74
2023/08/04 11:10:53;;;;;;;1.65;1.20;;;;;;;;;;6076662;29;20305;-74
2023/08/04 11:13:58;;;;;;;1.30;1.05;;;;;;;;;;6075993;29;20562;-72
2023/08/04 11:17:02;;;;;;;1.45;1.40;;;;;;;;;;6076033;29;20308;-72
2023/08/04 11:20:12;;;;;;;1.67;1.55;;;;;;;;;;6075907;29;20601;-73
2023/08/04 11:23:36;;;;;;;1.85;1.33;;;;;;;;;;6075464;29;20574;-73
2023/08/04 11:26:40;;;;;;;1.58;1.30;;;;;;;;;;6076239;29;20309;-72
2023/08/04 11:29:44;;;;;;;1.88;1.70;;;;;;;;;;6075659;29;20300;-75
2023/08/04 11:32:50;;;;;;;1.30;1.30;;;;;;;;;;6075535;29;20301;-73
2023/08/04 11:35:54;;;;;;;1.63;1.52;;;;;;;;;;6076003;29;20301;-74
2023/08/04 11:38:59;;;;;;;3.25;1.35;;;;;;;;;;6075159;29;20309;-73
2023/08/04 11:42:04;;;;;;;2.38;1.30;;;;;;;;;;6075868;29;20305;-73
2023/08/04 11:45:09;;;;;;;1.20;1.10;;;;;;;;;;6075597;29;20296;-74
2023/08/04 11:48:14;;;;;;;1.10;1.10;;;;;;;;;;6075591;29;20289;-73
2023/08/04 11:51:17;;;;;;;1.42;1.30;;;;;;;;;;6075674;29;20302;-73
2023/08/04 11:54:24;;;;;;;1.45;1.40;;;;;;;;;;6073999;29;20300;-74
2023/08/04 11:57:28;;;;;;;1.40;1.40;;;;;;;;;;6073643;29;20273;-74
2023/08/04 12:00:33;;;;;;;1.33;1.30;;;;;;;;;;6075366;29;20351;-73
2023/08/04 12:03:42;;;;;;;1.35;1.35;;;;;;;;;;6074760;29;20305;-76
2023/08/04 12:06:46;;;;;;;1.40;1.40;;;;;;;;;;6074112;29;20305;-73
2023/08/04 12:09:52;;;;;;;1.17;1.17;;;;;;;;;;6070955;29;20430;-74
2023/08/04 12:12:55;;;;;;;1.00;1.00;;;;;;;;;;6071083;29;20308;-73
2023/08/04 12:15:59;;;;;;;1.10;1.10;;;;;;;;;;6071969;29;20294;-73
2023/08/04 12:19:06;;;;;;;1.30;1.30;;;;;;;;;;6071264;29;20297;-73
2023/08/04 12:22:09;;;;;;;1.10;1.10;;;;;;;;;;6071790;29;20341;-73
2023/08/04 12:25:15;;;;;;;1.23;1.13;;;;;;;;;;6071247;29;20297;-73
2023/08/04 12:28:18;;;;;;;1.17;1.17;;;;;;;;;;6071230;29;20305;-73
2023/08/04 12:31:25;;;;;;;1.30;1.30;;;;;;;;;;6071568;29;20300;-73
2023/08/04 12:34:29;;;;;;;1.77;1.30;;;;;;;;;;6071306;29;20609;-73
2023/08/04 12:37:33;;;;;;;1.05;1.05;;;;;;;;;;6071492;29;20308;-74
2023/08/04 12:40:38;;;;;;;1.02;1.02;;;;;;;;;;6070741;29;20585;-74
2023/08/04 12:43:42;;;;;;;1.00;1.00;;;;;;;;;;6070737;29;20471;-74
2023/08/04 12:46:46;;;;;;;1.20;1.20;;;;;;;;;;6071481;29;20305;-74
2023/08/04 12:49:49;;;;;;;1.90;1.38;;;;;;;;;;6070493;29;20300;-74
2023/08/04 12:52:53;;;;;;;1.10;1.00;;;;;;;;;;6070577;29;20357;-74
2023/08/04 12:55:59;;;;;;;1.20;1.20;;;;;;;;;;6071097;29;20305;-74
2023/08/04 12:59:03;;;;;;;1.65;1.17;;;;;;;;;;6070711;29;20301;-74
2023/08/04 13:02:07;;;;;;;1.50;1.50;;;;;;;;;;6070716;29;20321;-75
2023/08/04 13:05:11;;;;;;;1.50;1.50;;;;;;;;;;6069319;29;20573;-74
2023/08/04 13:08:15;;;;;;;1.20;1.20;;;;;;;;;;6069987;29;20360;-74
2023/08/04 13:11:21;;;;;;;1.30;1.30;;;;;;;;;;6070715;29;20597;-74
2023/08/04 13:14:25;;;;;;;2.83;1.63;;;;;;;;;;6070390;29;20305;-74
2023/08/04 13:17:28;;;;;;;1.75;1.70;;;;;;;;;;6070770;29;20301;-74
2023/08/04 13:20:33;;;;;;;1.50;1.50;;;;;;;;;;6069415;29;20404;-74
2023/08/04 13:23:36;;;;;;;1.63;1.50;;;;;;;;;;6069979;29;20628;-75
2023/08/04 13:26:41;;;;;;;1.40;1.40;;;;;;;;;;6070532;29;20297;-74
2023/08/04 13:29:47;;;;;;;1.50;1.40;;;;;;;;;;6070022;29;20296;-74
2023/08/04 13:32:51;;;;;;;1.48;1.48;;;;;;;;;;6068829;29;20301;-74
2023/08/04 13:35:55;;;;;;;1.75;1.75;;;;;;;;;;6070343;29;20301;-74
2023/08/04 13:38:59;;;;;;;1.52;1.52;;;;;;;;;;6069543;29;20501;-74
2023/08/04 13:42:05;;;;;;;1.73;1.65;;;;;;;;;;6069921;29;20354;-74
2023/08/04 13:45:09;;;;;;;1.77;1.67;;;;;;;;;;6069674;29;20310;-74
2023/08/04 13:48:13;;;;;;;2.47;1.73;;;;;;;;;;6069807;29;20298;-74
2023/08/04 13:51:17;;;;;;;6.88;3.50;;;;;;;;;;6070229;29;20304;-74
2023/08/04 13:54:30;;;;;;;2.30;2.10;;;;;;;;;;6068561;29;20305;-74
2023/08/04 13:57:35;;;;;;;1.80;1.75;;;;;;;;;;6069435;29;20245;-73
2023/08/04 14:00:44;;;;;;;1.90;1.83;;;;;;;;;;6069244;29;20586;-75
2023/08/04 14:03:48;;;;;;;5.88;5.32;;;;;;;;;;6068648;29;20292;-74
2023/08/04 14:06:52;;;;;;;2.03;1.92;;;;;;;;;;6069908;29;20301;-76
2023/08/04 14:09:56;;;;;;;2.10;2.10;;;;;;;;;;6068872;29;20429;-72
2023/08/04 14:13:02;;;;;;;1.85;1.75;;;;;;;;;;6068955;29;20293;-73
2023/08/04 14:16:09;;;;;;;2.20;1.90;;;;;;;;;;6069295;29;20292;-73
2023/08/04 14:19:13;;;;;;;1.90;1.90;;;;;;;;;;6068855;29;20296;-73
2023/08/04 14:22:17;;;;;;;2.25;1.92;;;;;;;;;;6068894;29;20301;-72
2023/08/04 14:25:21;;;;;;;2.20;2.10;;;;;;;;;;6068543;29;20304;-72
2023/08/04 14:28:26;;;;;;;2.15;2.10;;;;;;;;;;6068210;29;20313;-72
2023/08/04 14:31:30;;;;;;;2.22;2.10;;;;;;;;;;6068335;29;20590;-72
2023/08/04 14:34:35;;;;;;;2.30;2.13;;;;;;;;;;6068193;29;20309;-72
2023/08/04 14:37:39;;;;;;;2.00;2.00;;;;;;;;;;6068565;29;20298;-72
2023/08/04 14:40:43;;;;;;;1.67;1.67;;;;;;;;;;6068908;29;20316;-72
2023/08/04 14:43:49;;;;;;;2.05;2.05;;;;;;;;;;6067965;29;20301;-72
2023/08/04 14:46:53;;;;;;;1.98;1.83;;;;;;;;;;6068666;29;20305;-74
2023/08/04 14:49:57;;;;;;;2.08;1.98;;;;;;;;;;6068311;29;20384;-72
2023/08/04 14:53:01;;;;;;;2.22;2.10;;;;;;;;;;6067885;29;20485;-73
2023/08/04 14:56:05;;;;;;;2.20;2.10;;;;;;;;;;6068593;29;20612;-72
2023/08/04 14:59:10;;;;;;;1.88;1.77;;;;;;;;;;6068032;29;20293;-73
2023/08/04 15:02:14;;;;;;;2.15;2.08;;;;;;;;;;6068644;29;20305;-73
2023/08/04 15:05:18;;;;;;;1.98;1.98;;;;;;;;;;6068231;29;20300;-73
2023/08/04 15:08:22;;;;;;;3.95;3.72;;;;;;;;;;6068059;29;20292;-72
2023/08/04 15:11:26;;;;;;;2.85;2.80;;;;;;;;;;6068100;29;20300;-73
2023/08/04 15:14:31;;;;;;;1.95;1.95;;;;;;;;;;6068135;29;20305;-72
2023/08/04 15:17:37;;;;;;;1.83;1.83;;;;;;;;;;6068109;29;20301;-74
2023/08/04 15:20:44;;;;;;;1.83;1.73;;;;;;;;;;6068205;29;20308;-73
2023/08/04 15:23:48;;;;;;;2.10;2.10;;;;;;;;;;6066604;29;20313;-73
2023/08/04 15:26:52;;;;;;;2.70;2.50;;;;;;;;;;6066918;29;20476;-74
2023/08/04 15:29:57;;;;;;;2.42;2.33;;;;;;;;;;6067605;29;20300;-72
2023/08/04 15:33:01;;;;;;;2.08;2.08;;;;;;;;;;6067670;29;20301;-72
2023/08/04 15:36:06;;;;;;;1.65;1.65;;;;;;;;;;6068310;29;20309;-72
2023/08/04 15:39:10;;;;;;;2.47;2.40;;;;;;;;;;6067811;29;20296;-74
2023/08/04 15:42:14;;;;;;;2.33;2.33;;;;;;;;;;6070010;29;20309;-74
2023/08/04 15:45:20;;;;;;;2.40;2.40;;;;;;;;;;6072111;29;20341;-74
2023/08/04 15:48:24;;;;;;;2.40;2.40;;;;;;;;;;6072348;29;20293;-74
2023/08/04 15:51:27;;;;;;;2.40;2.40;;;;;;;;;;6071636;29;20277;-75
2023/08/04 15:54:31;;;;;;;2.30;2.30;;;;;;;;;;6071815;29;20306;-76
2023/08/04 15:57:35;;;;;;;3.08;2.20;;;;;;;;;;6072081;29;20249;-77
2023/08/04 16:00:40;;;;;;;2.40;2.40;;;;;;;;;;6071682;29;20287;-76
2023/08/04 16:03:44;;;;;;;2.20;2.20;;;;;;;;;;6070447;29;20760;-74
2023/08/04 16:06:48;;;;;;;2.50;2.40;;;;;;;;;;6072178;29;20304;-73
2023/08/04 16:09:52;;;;;;;1.77;1.75;;;;;;;;;;6070586;29;20468;-73
2023/08/04 16:13:00;;;;;;;1.70;1.70;;;;;;;;;;6071195;29;20450;-73
2023/08/04 16:16:06;;;;;;;2.05;2.05;;;;;;;;;;6071887;29;20360;-73
2023/08/04 16:19:10;;;;;;;2.00;2.00;;;;;;;;;;6071480;29;20297;-75
2023/08/04 16:22:14;;;;;;;1.73;1.70;;;;;;;;;;6071667;29;20297;-75
2023/08/04 16:25:18;;;;;;;1.98;1.88;;;;;;;;;;6071251;29;20337;-76
2023/08/04 16:28:22;;;;;;;1.75;1.73;;;;;;;;;;6071107;29;20292;-75
2023/08/04 16:31:27;;;;;;;1.55;1.55;;;;;;;;;;6071352;29;20300;-74
2023/08/04 16:34:31;;;;;;;2.22;2.13;;;;;;;;;;6070037;29;20305;-72
2023/08/04 16:37:35;;;;;;;1.73;1.70;;;;;;;;;;6071398;29;20336;-73
2023/08/04 16:40:39;;;;;;;1.92;1.92;;;;;;;;;;6070493;29;20314;-74
2023/08/04 16:43:43;;;;;;;2.00;2.00;;;;;;;;;;6070956;29;20479;-74
2023/08/04 16:46:48;;;;;;;1.90;1.90;;;;;;;;;;6071384;29;20305;-74
2023/08/04 16:49:53;;;;;;;2.15;2.00;;;;;;;;;;6070665;29;20300;-74
2023/08/04 16:52:56;;;;;;;1.90;1.80;;;;;;;;;;6069908;29;20289;-75
2023/08/04 16:56:01;;;;;;;1.90;1.90;;;;;;;;;;6070582;29;20631;-75
2023/08/04 16:59:04;;;;;;;2.13;2.03;;;;;;;;;;6068618;29;20630;-75
2023/08/04 17:02:10;;;;;;;2.30;1.80;;;;;;;;;;6070405;29;20313;-74
2023/08/04 17:05:14;;;;;;;1.67;1.67;;;;;;;;;;6070388;29;20596;-73
2023/08/04 17:08:17;;;;;;;2.03;2.03;;;;;;;;;;6070164;29;20293;-72
2023/08/04 17:11:21;;;;;;;1.85;1.85;;;;;;;;;;6070283;29;20305;-73
2023/08/04 17:14:25;;;;;;;1.60;1.60;;;;;;;;;;6070018;29;20492;-72
2023/08/04 17:17:31;;;;;;;5.95;2.00;;;;;;;;;;6070761;29;20488;-72
2023/08/04 17:20:35;;;;;;;1.73;1.73;;;;;;;;;;6070199;29;20316;-72
2023/08/04 17:23:39;;;;;;;3.03;2.05;;;;;;;;;;6069774;29;20300;-72
2023/08/04 17:26:43;;;;;;;2.15;2.05;;;;;;;;;;6070340;29;20592;-71
2023/08/04 17:29:46;;;;;;;2.15;2.15;;;;;;;;;;6069652;29;20454;-71
2023/08/04 17:32:51;;;;;;;2.30;2.30;;;;;;;;;;6069874;29;20304;-72
2023/08/04 17:35:56;;;;;;;2.35;2.28;;;;;;;;;;6070390;29;20333;-72
2023/08/04 17:39:00;;;;;;;2.10;2.10;;;;;;;;;;6069750;29;20490;-74
2023/08/04 17:42:04;;;;;;;2.45;2.45;;;;;;;;;;6070114;29;20602;-74
2023/08/04 17:45:08;;;;;;;1.65;1.55;;;;;;;;;;6069544;29;20313;-74
2023/08/04 17:48:14;;;;;;;2.33;2.30;;;;;;;;;;6068101;29;20468;-75
2023/08/04 17:51:18;;;;;;;2.10;2.10;;;;;;;;;;6069953;29;20309;-73
2023/08/04 17:54:21;;;;;;;2.22;2.13;;;;;;;;;;6069412;29;20309;-73
2023/08/04 17:57:27;;;;;;;2.30;2.22;;;;;;;;;;6069886;29;20309;-72
2023/08/04 18:00:30;;;;;;;2.63;2.42;;;;;;;;;;6068699;29;20456;-71
2023/08/04 18:03:36;;;;;;;3.58;3.47;;;;;;;;;;6069329;29;20308;-73
2023/08/04 18:06:39;;;;;;;2.30;2.20;;;;;;;;;;6068829;29;20281;-74
2023/08/04 18:09:43;;;;;;;2.33;2.33;;;;;;;;;;6069192;29;20316;-75
2023/08/04 18:12:47;;;;;;;2.58;2.40;;;;;;;;;;6068998;29;20289;-74
2023/08/04 18:15:53;;;;;;;3.80;3.50;;;;;;;;;;6069808;29;20292;-73
2023/08/04 18:18:59;;;;;;;4.72;4.30;;;;;;;;;;6069021;29;20569;-73
2023/08/04 18:22:02;;;;;;;2.78;2.70;;;;;;;;;;6069482;29;20293;-72
2023/08/04 18:25:09;;;;;;;2.92;2.70;;;;;;;;;;6069052;29;20293;-73
2023/08/04 18:28:13;;;;;;;2.08;1.98;;;;;;;;;;6068733;29;20308;-72